Sea Voyager — V7QU2 — position and weather

sailwx.info

Track history (hours):
 
Tides and Currents Weather Stations Pressure Air Temp Water Temp Dewpoint Dewpoint Depression Visibility Wind Speed Wind Dir Waves Ship Positions

Sea Voyager

Last reported at 2014-Dec-17 06:13 UTC. Time now 2014-Dec-18 22:24 UTC.
Position N 35°04' E 119°51'.

Length 243 m; draft 12.7 m.

Type: Ship (hazmat cat A). MMSI: 538003439.

Date/timePositionNaut miles runAvg speedWind from/ knotsBaromVisibWave heightAir tempDewpointWater temp
2014-Dec-17 06:13N 35°04' E 119°51'811.9
2014-Dec-17 05:31N 35°04' E 119°41'10 9.8
2014-Dec-17 04:32N 35°03' E 119°29'2 0.0
2014-Dec-15 02:33N 35°03' E 119°31'9 8.5
2014-Dec-15 01:32N 35°05' E 119°41'0 0.0
2014-Dec-14 22:08N 35°05' E 119°42'0 0.1
2014-Dec-14 21:32N 35°05' E 119°42'0 0.0
2014-Dec-14 20:14N 35°05' E 119°42'0 0.0
2014-Dec-14 19:32N 35°05' E 119°42'0 0.0
2014-Dec-14 18:20N 35°05' E 119°42'0 0.0
2014-Dec-14 17:32N 35°05' E 119°42'0 0.1
2014-Dec-14 16:32N 35°05' E 119°42'0 0.1
2014-Dec-14 15:08N 35°05' E 119°41'0 0.0
2014-Dec-14 13:08N 35°05' E 119°41'0 0.2
2014-Dec-14 12:12N 35°05' E 119°42'1 1.9
2014-Dec-14 11:25N 35°04' E 119°43'1111.0
2014-Dec-14 10:22N 35°02' E 119°57'  
Track history (hours):
 
Tides and Currents Weather Stations Pressure Air Temp Water Temp Dewpoint Dewpoint Depression Visibility Wind Speed Wind Dir Waves Ship Positions

Sea Voyager

Last reported at 2014-Dec-17 06:13 UTC. Time now 2014-Dec-18 22:24 UTC.
Position N 35°04' E 119°51'.

Length 243 m; draft 12.7 m.

Type: Ship (hazmat cat A). MMSI: 538003439.

Date/timePositionNaut miles runAvg speedWind from/ knotsBaromVisibWave heightAir tempDewpointWater temp
2014-Dec-17 06:13N 35°04' E 119°51'811.9
2014-Dec-17 05:31N 35°04' E 119°41'10 9.8
2014-Dec-17 04:32N 35°03' E 119°29'2 0.0
2014-Dec-15 02:33N 35°03' E 119°31'9 8.5
2014-Dec-15 01:32N 35°05' E 119°41'0 0.0
2014-Dec-14 22:08N 35°05' E 119°42'0 0.1
2014-Dec-14 21:32N 35°05' E 119°42'0 0.0
2014-Dec-14 20:14N 35°05' E 119°42'0 0.0
2014-Dec-14 19:32N 35°05' E 119°42'0 0.0
2014-Dec-14 18:20N 35°05' E 119°42'0 0.0
2014-Dec-14 17:32N 35°05' E 119°42'0 0.1
2014-Dec-14 16:32N 35°05' E 119°42'0 0.1
2014-Dec-14 15:08N 35°05' E 119°41'0 0.0
2014-Dec-14 13:08N 35°05' E 119°41'0 0.2
2014-Dec-14 12:12N 35°05' E 119°42'1 1.9
2014-Dec-14 11:25N 35°04' E 119°43'1111.0
2014-Dec-14 10:22N 35°02' E 119°57'  

Dump ship's entire track history